地図

経路データ

SID SEASON NUMBER BASIN SUBBASIN NAME ISO_TIME NATURE LAT LON WMO_WIND WMO_PRES WMO_AGENCY TRACK_TYPE DIST2LAND LANDFALL IFLAG USA_AGENCY USA_ATCF_ID USA_LAT USA_LON USA_RECORD USA_STATUS USA_WIND USA_PRES USA_SSHS USA_R34_NE USA_R34_SE USA_R34_SW USA_R34_NW USA_R50_NE USA_R50_SE USA_R50_SW USA_R50_NW USA_R64_NE USA_R64_SE USA_R64_SW USA_R64_NW USA_POCI USA_ROCI USA_RMW USA_EYE TOKYO_LAT TOKYO_LON TOKYO_GRADE TOKYO_WIND TOKYO_PRES TOKYO_R50_DIR TOKYO_R50_LONG TOKYO_R50_SHORT TOKYO_R30_DIR TOKYO_R30_LONG TOKYO_R30_SHORT TOKYO_LAND CMA_LAT CMA_LON CMA_CAT CMA_WIND CMA_PRES HKO_LAT HKO_LON HKO_CAT HKO_WIND HKO_PRES NEWDELHI_LAT NEWDELHI_LON NEWDELHI_GRADE NEWDELHI_WIND NEWDELHI_PRES NEWDELHI_CI NEWDELHI_DP NEWDELHI_POCI REUNION_LAT REUNION_LON REUNION_TYPE REUNION_WIND REUNION_PRES REUNION_TNUM REUNION_CI REUNION_RMW REUNION_R34_NE REUNION_R34_SE REUNION_R34_SW REUNION_R34_NW REUNION_R50_NE REUNION_R50_SE REUNION_R50_SW REUNION_R50_NW REUNION_R64_NE REUNION_R64_SE REUNION_R64_SW REUNION_R64_NW BOM_LAT BOM_LON BOM_TYPE BOM_WIND BOM_PRES BOM_TNUM BOM_CI BOM_RMW BOM_R34_NE BOM_R34_SE BOM_R34_SW BOM_R34_NW BOM_R50_NE BOM_R50_SE BOM_R50_SW BOM_R50_NW BOM_R64_NE BOM_R64_SE BOM_R64_SW BOM_R64_NW BOM_ROCI BOM_POCI BOM_EYE BOM_POS_METHOD BOM_PRES_METHOD NADI_LAT NADI_LON NADI_CAT NADI_WIND NADI_PRES WELLINGTON_LAT WELLINGTON_LON WELLINGTON_WIND WELLINGTON_PRES DS824_LAT DS824_LON DS824_STAGE DS824_WIND DS824_PRES TD9636_LAT TD9636_LON TD9636_STAGE TD9636_WIND TD9636_PRES TD9635_LAT TD9635_LON TD9635_WIND TD9635_PRES TD9635_ROCI NEUMANN_LAT NEUMANN_LON NEUMANN_CLASS NEUMANN_WIND NEUMANN_PRES MLC_LAT MLC_LON MLC_CLASS MLC_WIND MLC_PRES USA_GUST BOM_GUST BOM_GUST_PER REUNION_GUST REUNION_GUST_PER USA_SEAHGT USA_SEARAD_NE USA_SEARAD_SE USA_SEARAD_SW USA_SEARAD_NW STORM_SPEED STORM_DIR
1985232N16248 1985 71 EP MM NORA 1985-08-19 18:00:00 TS 15.5000 -111.800 25 hurdat_epa main 833 833 O_________O___ hurdat_epa EP141985 15.5000 -111.800 TD 25 -1 15.5000 -111.800 1 25 10 291
1985232N16248 1985 71 EP MM NORA 1985-08-19 21:00:00 TS 15.6794 -112.283 main 840 832 P_________P___ EP141985 15.6777 -112.282 TD 25 -1 15.6848 -112.283 1 25 10 293
1985232N16248 1985 71 EP MM NORA 1985-08-20 00:00:00 TS 15.9000 -112.800 25 hurdat_epa main 836 825 O_________O___ hurdat_epa EP141985 15.9000 -112.800 TD 25 -1 15.9000 -112.800 1 25 12 296
1985232N16248 1985 71 EP MM NORA 1985-08-20 03:00:00 TS 16.1858 -113.377 main 829 823 P_________P___ EP141985 16.1924 -113.377 TD 25 -1 16.1660 -113.376 1 25 13 297
1985232N16248 1985 71 EP MM NORA 1985-08-20 06:00:00 TS 16.4901 -114.000 25 hurdat_epa main 829 824 O_________P___ hurdat_epa EP141985 16.5000 -114.000 TD 25 -1 16.4602 -113.998 1 25 13 296
1985232N16248 1985 71 EP MM NORA 1985-08-20 09:00:00 TS 16.7666 -114.644 main 834 834 P_________P___ EP141985 16.7724 -114.643 TD 25 -1 16.7492 -114.647 1 25 13 292
1985232N16248 1985 71 EP MM NORA 1985-08-20 12:00:00 TS 17.0000 -115.300 25 hurdat_epa main 861 861 O_________O___ hurdat_epa EP141985 17.0000 -115.300 TD 25 -1 17.0000 -115.300 1 25 13 288
1985232N16248 1985 71 EP MM NORA 1985-08-20 15:00:00 TS 17.1712 -115.952 main 893 893 P_________P___ EP141985 17.1724 -115.958 TD 25 -1 17.1677 -115.934 1 26 13 284
1985232N16248 1985 71 EP MM NORA 1985-08-20 18:00:00 TS 17.2986 -116.592 25 hurdat_epa main 930 930 O_________P___ hurdat_epa EP141985 17.3000 -116.600 TD 25 -1 17.2945 -116.566 1 27 12 281
1985232N16248 1985 71 EP MM NORA 1985-08-20 21:00:00 TS 17.3996 -117.203 main 970 970 P_________P___ EP141985 17.3997 -117.208 TD 27 -1 17.3990 -117.190 1 28 12 280
1985232N16248 1985 71 EP MM NORA 1985-08-21 00:00:00 TS 17.5000 -117.800 30 hurdat_epa main 998 998 O_________O___ hurdat_epa EP141985 17.5000 -117.800 TD 30 -1 17.5000 -117.800 1 30 12 282
1985232N16248 1985 71 EP MM NORA 1985-08-21 03:00:00 TS 17.6385 -118.407 main 1027 1025 P_________P___ EP141985 17.6499 -118.407 TD 30 -1 17.6043 -118.406 1 31 12 284
1985232N16248 1985 71 EP MM NORA 1985-08-21 06:00:00 TS 17.7780 -118.999 30 hurdat_epa main 1051 1051 O_________P___ hurdat_epa EP141985 17.8000 -119.000 TD 30 -1 17.7121 -118.996 1 32 11 282
1985232N16248 1985 71 EP MM NORA 1985-08-21 09:00:00 TS 17.8790 -119.565 main 1086 1086 P_________P___ EP141985 17.8923 -119.565 TD 32 -1 17.8388 -119.563 1 33 11 282
1985232N16248 1985 71 EP MM NORA 1985-08-21 12:00:00 TS 18.0000 -120.100 35 hurdat_epa main 1115 1115 O_________O___ hurdat_epa EP141985 18.0000 -120.100 TS 35 0 18.0000 -120.100 2 35 10 287
1985232N16248 1985 71 EP MM NORA 1985-08-21 15:00:00 TS 18.1746 -120.607 main 1139 1139 P_________P___ EP141985 18.1699 -120.615 TS 35 0 18.1886 -120.584 2 36 10 293
1985232N16248 1985 71 EP MM NORA 1985-08-21 18:00:00 TS 18.4040 -121.086 35 hurdat_epa main 1164 1164 O_________P___ hurdat_epa EP141985 18.4000 -121.100 TS 35 0 18.4160 -121.044 2 37 10 300
1985232N16248 1985 71 EP MM NORA 1985-08-21 21:00:00 TS 18.6736 -121.528 main 1177 1177 P_________P___ EP141985 18.6697 -121.535 TS 37 0 18.6854 -121.507 2 38 11 305
1985232N16248 1985 71 EP MM NORA 1985-08-22 00:00:00 TS 19.0000 -122.000 40 hurdat_epa main 1200 1196 O_________O___ hurdat_epa EP141985 19.0000 -122.000 TS 40 0 19.0000 -122.000 2 40 12 305
1985232N16248 1985 71 EP MM NORA 1985-08-22 03:00:00 TS 19.3791 -122.581 main 1207 1205 P_________P___ EP141985 19.3850 -122.578 TS 37 0 19.3615 -122.592 2 37 14 305
1985232N16248 1985 71 EP MM NORA 1985-08-22 06:00:00 TS 19.7908 -123.203 35 hurdat_epa main 1213 1211 O_________P___ hurdat_epa EP141985 19.8000 -123.200 TS 35 0 19.7634 -123.214 2 35 14 305
1985232N16248 1985 71 EP MM NORA 1985-08-22 09:00:00 TS 20.2015 -123.824 main 1224 1224 P_________P___ EP141985 20.2075 -123.823 TS 32 -1 20.1834 -123.829 2 32 14 306
1985232N16248 1985 71 EP MM NORA 1985-08-22 12:00:00 TS 20.6000 -124.400 30 hurdat_epa main 1239 1239 O_________O___ hurdat_epa EP141985 20.6000 -124.400 TD 30 -1 20.6000 -124.400 1 30 12 307
1985232N16248 1985 71 EP MM NORA 1985-08-22 15:00:00 TS 20.9586 -124.879 main 1250 1250 P_________P___ EP141985 20.9497 -124.880 TD 30 -1 20.9852 -124.877 1 30 11 310
1985232N16248 1985 71 EP MM NORA 1985-08-22 18:00:00 TS 21.3159 -125.301 30 hurdat_epa main 1262 1255 O_________P___ hurdat_epa EP141985 21.3000 -125.300 TD 30 -1 21.3636 -125.304 1 30 11 315
1985232N16248 1985 71 EP MM NORA 1985-08-22 21:00:00 TS 21.7143 -125.701 main 1270 1264 P_________P___ EP141985 21.7073 -125.700 TD 30 -1 21.7353 -125.705 1 30 11 317
1985232N16248 1985 71 EP MM NORA 1985-08-23 00:00:00 TS 22.1000 -126.100 30 hurdat_epa main 1280 1280 O_________O___ hurdat_epa EP141985 22.1000 -126.100 TD 30 -1 22.1000 -126.100 1 30 10 312
1985232N16248 1985 71 EP MM NORA 1985-08-23 03:00:00 TS 22.4144 -126.540 main 1299 1299 P_________P___ EP141985 22.4000 -126.550 TD 27 -1 22.4575 -126.508 1 28 10 308
1985232N16248 1985 71 EP MM NORA 1985-08-23 06:00:00 TS 22.7272 -126.983 25 hurdat_epa main 1328 1323 O_________P___ hurdat_epa EP141985 22.7000 -127.000 TD 25 -1 22.8089 -126.930 1 27 10 311
1985232N16248 1985 71 EP MM NORA 1985-08-23 09:00:00 TS 23.0953 -127.399 main 1345 1345 P_________P___ EP141985 23.0751 -127.412 TD 25 -1 23.1559 -127.362 1 26 11 316
1985232N16248 1985 71 EP MM NORA 1985-08-23 12:00:00 TS 23.5000 -127.800 25 hurdat_epa main 1364 O_________O___ hurdat_epa EP141985 23.5000 -127.800 TD 25 -1 23.5000 -127.800 1 25 11 318

IBTrACS Databaseについて

本データベースは、米国NOAAが公開する1842年以降の世界の熱帯低気圧のベストトラックデータアーカイブInternational Best Track Archive for Climate Stewardship (IBTrACS)を、ウェブで閲覧しやすい形式に変換したものです。

最終更新日:2021-12-01